createdAt,value
2023-01-04T00:06:26.589Z,3.08
2023-01-04T00:11:29.119Z,3.38
2023-01-04T00:16:31.669Z,3.10
2023-01-04T00:21:35.524Z,3.03
2023-01-04T00:26:37.952Z,2.78
2023-01-04T00:31:40.681Z,3.15
2023-01-04T00:36:44.749Z,3.23
2023-01-04T00:42:03.411Z,3.35
2023-01-04T00:47:05.926Z,3.40
2023-01-04T00:52:09.802Z,3.30
2023-01-04T00:57:12.249Z,3.40
2023-01-04T01:02:14.812Z,3.53
2023-01-04T01:07:18.705Z,3.47
2023-01-04T01:12:21.131Z,3.97
2023-01-04T01:17:23.528Z,4.50
2023-01-04T01:22:27.288Z,4.10
2023-01-04T01:27:29.716Z,4.38
2023-01-04T01:32:32.100Z,4.72
2023-01-04T01:37:35.818Z,4.47
2023-01-04T01:42:38.497Z,4.70
2023-01-04T01:47:42.753Z,5.37
2023-01-04T01:52:46.573Z,4.38
2023-01-04T01:57:49.537Z,4.65
2023-01-04T02:02:55.944Z,4.53
2023-01-04T02:08:00.219Z,4.38
2023-01-04T02:13:05.674Z,5.38
2023-01-04T02:18:11.225Z,5.15
2023-01-04T02:23:36.259Z,5.30
2023-01-04T02:28:48.644Z,4.68
2023-01-04T02:33:53.278Z,4.05
2023-01-04T02:39:01.471Z,4.72
2023-01-04T02:44:25.214Z,3.95
2023-01-04T02:49:46.491Z,4.33
2023-01-04T02:54:50.769Z,4.30
2023-01-04T03:00:04.524Z,4.05
2023-01-04T03:05:32.475Z,4.18
2023-01-04T03:10:38.501Z,3.35
2023-01-04T03:15:42.219Z,3.28
2023-01-04T03:20:48.143Z,3.03
2023-01-04T03:26:10.626Z,2.40
2023-01-04T03:31:31.537Z,2.90
2023-01-04T03:36:43.037Z,3.13
2023-01-04T03:42:04.847Z,2.80
2023-01-04T03:47:27.273Z,3.20
2023-01-04T03:52:32.119Z,2.63
2023-01-04T03:57:35.115Z,3.15
2023-01-04T04:02:38.343Z,3.45
2023-01-04T04:07:59.439Z,3.33
2023-01-04T04:13:01.926Z,3.80
2023-01-04T04:18:04.621Z,4.45
2023-01-04T04:23:08.418Z,4.10
2023-01-04T04:28:11.082Z,4.22
2023-01-04T04:33:13.543Z,4.67
2023-01-04T04:38:17.339Z,4.45
2023-01-04T04:43:19.871Z,5.35
2023-01-04T04:48:22.349Z,5.03
2023-01-04T04:53:26.178Z,4.97
2023-01-04T04:58:28.667Z,5.25
2023-01-04T05:03:31.250Z,5.60
2023-01-04T05:08:35.346Z,5.97
2023-01-04T05:13:38.175Z,6.00
2023-01-04T05:18:40.610Z,5.43
2023-01-04T05:23:44.599Z,6.80
2023-01-04T05:28:51.637Z,6.20
2023-01-04T05:33:56.510Z,5.68
2023-01-04T05:39:00.357Z,5.87
2023-01-04T05:44:02.848Z,6.47
2023-01-04T05:49:05.335Z,5.47
2023-01-04T05:54:09.176Z,5.53
2023-01-04T05:59:11.653Z,5.45
2023-01-04T06:04:14.146Z,5.50
2023-01-04T06:09:18.127Z,5.60
2023-01-04T06:14:20.548Z,4.70
2023-01-04T06:19:23.001Z,5.15
2023-01-04T06:24:26.792Z,5.45
2023-01-04T06:29:29.282Z,5.15
2023-01-04T06:34:31.805Z,5.27
2023-01-04T06:39:35.556Z,5.17
2023-01-04T06:44:37.963Z,5.13
2023-01-04T06:49:40.375Z,4.50
2023-01-04T06:54:44.091Z,5.13
2023-01-04T06:59:46.573Z,5.22
2023-01-04T07:04:49.182Z,4.90
2023-01-04T07:09:53.006Z,4.27
2023-01-04T07:14:55.435Z,4.90
2023-01-04T07:19:57.875Z,4.68
2023-01-04T07:25:01.599Z,5.93
2023-01-04T07:30:04.083Z,6.47
2023-01-04T07:35:06.744Z,6.33
2023-01-04T07:40:11.271Z,6.03
2023-01-04T07:45:13.699Z,6.03
2023-01-04T07:50:16.273Z,5.77
2023-01-04T07:55:20.013Z,4.87
2023-01-04T08:00:22.522Z,4.65
2023-01-04T08:05:25.271Z,4.30
2023-01-04T08:10:29.358Z,4.68
2023-01-04T08:15:31.762Z,4.80
2023-01-04T08:20:34.160Z,4.90
2023-01-04T08:25:37.891Z,5.00
2023-01-04T08:30:40.292Z,4.45
2023-01-04T08:35:42.680Z,5.00
2023-01-04T08:40:58.793Z,4.38
2023-01-04T08:46:04.557Z,4.85
2023-01-04T08:51:08.677Z,4.85
2023-01-04T08:56:12.773Z,5.00
2023-01-04T09:01:15.310Z,4.78
2023-01-04T09:06:18.398Z,6.00
2023-01-04T09:11:23.239Z,4.47
2023-01-04T09:16:25.996Z,4.03
2023-01-04T09:21:28.535Z,4.00
2023-01-04T09:26:32.396Z,3.83
2023-01-04T09:31:34.913Z,3.45
2023-01-04T09:36:37.449Z,3.60
2023-01-04T09:41:44.647Z,3.15
2023-01-04T09:46:49.246Z,3.95
2023-01-04T09:51:56.328Z,3.08
2023-01-04T09:57:00.129Z,3.67
2023-01-04T10:02:05.045Z,3.75
2023-01-04T10:07:10.456Z,3.05
2023-01-04T10:12:19.467Z,3.78
2023-01-04T10:18:13.554Z,3.03
2023-01-04T10:22:56.832Z,3.70
2023-01-04T10:28:05.506Z,3.40
2023-01-04T10:33:11.768Z,3.38
2023-01-04T10:38:16.946Z,2.85
2023-01-04T10:43:24.683Z,2.80
2023-01-04T10:48:30.916Z,3.03
2023-01-04T10:53:36.671Z,3.13
2023-01-04T10:58:43.204Z,2.67
2023-01-04T11:03:48.051Z,2.63
2023-01-04T11:08:52.016Z,2.63
2023-01-04T11:13:55.840Z,2.63
2023-01-04T11:18:58.429Z,2.30
2023-01-04T11:24:22.163Z,2.63
2023-01-04T11:29:30.785Z,2.38
2023-01-04T11:34:47.165Z,2.35
2023-01-04T11:39:49.567Z,2.15
2023-01-04T11:44:59.684Z,2.10
2023-01-04T11:50:02.124Z,2.10
2023-01-04T11:55:35.660Z,1.83
2023-01-04T12:00:39.530Z,1.88
2023-01-04T12:05:41.925Z,1.85
2023-01-04T12:10:44.259Z,2.37
2023-01-04T12:15:52.821Z,2.22
2023-01-04T12:20:55.626Z,2.20
2023-01-04T12:25:58.220Z,2.22
2023-01-04T12:31:20.141Z,2.20
2023-01-04T12:36:44.868Z,1.90
2023-01-04T12:42:19.428Z,2.38
2023-01-04T12:48:00.137Z,2.10
2023-01-04T12:53:29.295Z,2.05
2023-01-04T12:59:15.215Z,2.17
2023-01-04T13:04:25.016Z,2.30
2023-01-04T13:09:27.504Z,2.72
2023-01-04T13:14:34.200Z,2.57
2023-01-04T13:19:38.929Z,2.40
2023-01-04T13:24:44.066Z,2.22
2023-01-04T13:29:46.982Z,2.10
2023-01-04T13:34:52.844Z,2.70
2023-01-04T13:40:01.975Z,3.28
2023-01-04T13:45:22.610Z,2.65
2023-01-04T13:50:30.683Z,2.40
2023-01-04T13:55:36.201Z,2.92
2023-01-04T14:00:45.901Z,2.67
2023-01-04T14:05:52.437Z,2.13
2023-01-04T14:10:55.641Z,3.25
2023-01-04T14:21:02.689Z,3.10
2023-01-04T14:26:06.874Z,2.35
2023-01-04T14:31:21.730Z,2.80
2023-01-04T14:36:28.562Z,3.92
2023-01-04T14:41:33.684Z,3.03
2023-01-04T14:46:37.014Z,2.85
2023-01-04T14:51:44.095Z,2.25
2023-01-04T14:56:46.844Z,2.75
2023-01-04T15:01:49.770Z,2.20
2023-01-04T15:06:54.816Z,2.45
2023-01-04T15:11:58.306Z,2.22
2023-01-04T15:17:01.027Z,2.40
2023-01-04T15:22:05.284Z,2.38
2023-01-04T15:27:08.173Z,2.13
2023-01-04T15:32:10.941Z,2.78
2023-01-04T15:37:20.069Z,2.20
2023-01-04T15:42:58.434Z,2.73
2023-01-04T15:48:03.317Z,2.72
2023-01-04T15:53:07.908Z,3.67
2023-01-04T15:58:10.519Z,2.35
2023-01-04T16:03:13.162Z,2.40
2023-01-04T16:08:17.567Z,2.73
2023-01-04T16:13:20.475Z,2.85
2023-01-04T16:18:43.894Z,3.15
2023-01-04T16:24:29.234Z,3.78
2023-01-04T16:29:37.182Z,4.55
2023-01-04T16:34:41.435Z,4.15
2023-01-04T16:45:09.356Z,4.15
2023-01-04T16:50:14.149Z,5.22
2023-01-04T16:55:23.338Z,4.18
2023-01-04T17:00:29.140Z,4.25
2023-01-04T17:05:37.597Z,4.97
2023-01-04T17:10:42.916Z,5.60
2023-01-04T17:15:50.946Z,5.82
2023-01-04T17:20:54.502Z,4.80
2023-01-04T17:26:01.458Z,4.63
2023-01-04T17:31:10.228Z,4.80
2023-01-04T17:36:14.745Z,6.90
2023-01-04T17:41:19.912Z,8.10
2023-01-04T17:46:29.068Z,4.43
2023-01-04T17:51:31.804Z,5.35
2023-01-04T17:56:36.560Z,5.47
2023-01-04T18:01:42.084Z,4.65
2023-01-04T18:06:44.804Z,5.18
2023-01-04T18:11:48.886Z,5.30
2023-01-04T18:17:00.134Z,4.20
2023-01-04T18:22:03.214Z,5.10
2023-01-04T18:27:23.662Z,4.65
2023-01-04T18:32:29.624Z,5.20
2023-01-04T18:37:32.287Z,4.75
2023-01-04T18:42:35.864Z,5.15
2023-01-04T18:47:40.230Z,4.10
2023-01-04T18:52:43.010Z,5.38
2023-01-04T18:57:46.877Z,5.63
2023-01-04T19:02:51.129Z,5.63
2023-01-04T19:07:55.200Z,5.22
2023-01-04T19:12:57.858Z,5.70
2023-01-04T19:18:03.860Z,7.07
2023-01-04T19:23:06.526Z,5.82
2023-01-04T19:28:09.970Z,5.57
2023-01-04T19:38:16.904Z,6.53
2023-01-04T19:43:21.971Z,6.43
2023-01-04T19:48:26.404Z,7.15
2023-01-04T19:53:30.579Z,6.93
2023-01-04T19:58:35.256Z,6.93
2023-01-04T20:03:37.999Z,7.72
2023-01-04T20:08:43.183Z,6.57
2023-01-04T20:13:46.353Z,6.82
2023-01-04T20:18:48.788Z,7.88
2023-01-04T20:23:52.507Z,7.93
2023-01-04T20:28:57.150Z,8.15
2023-01-04T20:33:59.542Z,7.38
2023-01-04T20:39:03.724Z,8.57
2023-01-04T20:44:06.260Z,7.28
2023-01-04T20:49:09.747Z,8.27
2023-01-04T20:54:13.602Z,8.55
2023-01-04T20:59:16.044Z,7.70
2023-01-04T21:04:18.503Z,9.43
2023-01-04T21:09:22.219Z,8.87
2023-01-04T21:14:26.822Z,9.18
2023-01-04T21:19:30.217Z,7.88
2023-01-04T21:29:39.080Z,9.23
2023-01-04T21:34:41.500Z,9.07
2023-01-04T21:39:43.950Z,7.50
2023-01-04T21:44:48.721Z,7.97
2023-01-04T21:49:51.083Z,7.82
2023-01-04T21:54:53.573Z,6.15
2023-01-04T21:59:57.295Z,7.43
2023-01-04T22:05:00.108Z,8.63
2023-01-04T22:10:02.490Z,7.55
2023-01-04T22:15:06.985Z,7.00
2023-01-04T22:20:10.848Z,7.32
2023-01-04T22:25:13.337Z,5.95
2023-01-04T22:30:17.108Z,6.10
2023-01-04T22:35:20.045Z,7.60
2023-01-04T22:40:22.458Z,7.10
2023-01-04T22:45:26.172Z,6.13
2023-01-04T22:50:28.640Z,6.00
2023-01-04T22:55:45.699Z,5.67
2023-01-04T23:00:54.793Z,6.82
2023-01-04T23:05:57.206Z,5.82
2023-01-04T23:11:04.507Z,6.15
2023-01-04T23:16:09.451Z,6.05
2023-01-04T23:21:12.492Z,5.82
2023-01-04T23:26:15.854Z,5.43
2023-01-04T23:36:24.368Z,5.78
2023-01-04T23:41:44.668Z,6.15
2023-01-04T23:46:48.007Z,5.40
2023-01-04T23:51:52.085Z,5.40
2023-01-04T23:56:54.535Z,6.68
